createdAt,value
2023-02-11T00:01:17.281Z,76.67
2023-02-11T00:03:29.097Z,76.72
2023-02-11T00:05:41.268Z,76.75
2023-02-11T00:07:53.369Z,76.34
2023-02-11T00:10:08.125Z,76.36
2023-02-11T00:12:19.915Z,76.38
2023-02-11T00:14:32.023Z,76.39
2023-02-11T00:16:44.246Z,76.32
2023-02-11T00:18:56.310Z,76.34
2023-02-11T00:21:10.454Z,76.36
2023-02-11T00:23:22.048Z,76.53
2023-02-11T00:25:34.659Z,76.31
2023-02-11T00:27:46.233Z,76.35
2023-02-11T00:29:58.226Z,76.25
2023-02-11T00:32:11.244Z,76.23
2023-02-11T00:34:23.035Z,76.32
2023-02-11T00:36:35.028Z,76.00
2023-02-11T00:38:48.576Z,76.10
2023-02-11T00:41:01.270Z,75.87
2023-02-11T00:43:13.162Z,76.02
2023-02-11T00:45:25.262Z,75.90
2023-02-11T00:47:37.251Z,75.85
2023-02-11T00:49:49.246Z,76.03
2023-02-11T00:52:01.447Z,75.79
2023-02-11T00:54:13.956Z,75.83
2023-02-11T00:56:26.468Z,75.72
2023-02-11T00:58:38.662Z,75.66
2023-02-11T01:00:50.552Z,75.62
2023-02-11T01:03:02.765Z,75.74
2023-02-11T01:05:14.997Z,75.54
2023-02-11T01:07:28.788Z,75.55
2023-02-11T01:09:40.992Z,75.44
2023-02-11T01:11:52.679Z,75.57
2023-02-11T01:14:04.673Z,75.21
2023-02-11T01:16:17.586Z,75.28
2023-02-11T01:18:30.509Z,75.39
2023-02-11T01:20:43.424Z,75.27
2023-02-11T01:22:55.325Z,75.02
2023-02-11T01:25:08.642Z,75.03
2023-02-11T01:27:20.738Z,75.07
2023-02-11T01:29:32.631Z,75.07
2023-02-11T01:31:44.436Z,74.86
2023-02-11T01:33:56.827Z,75.03
2023-02-11T01:36:09.237Z,75.06
2023-02-11T01:38:24.407Z,75.17
2023-02-11T01:40:38.139Z,75.10
2023-02-11T01:42:51.141Z,74.78
2023-02-11T01:45:42.365Z,74.84
2023-02-11T01:47:54.583Z,74.63
2023-02-11T01:50:06.771Z,74.90
2023-02-11T01:52:26.343Z,74.75
2023-02-11T01:55:02.911Z,74.73
2023-02-11T01:57:25.132Z,74.78
2023-02-11T01:59:49.478Z,74.78
2023-02-11T02:02:08.542Z,74.65
2023-02-11T02:04:27.247Z,74.77
2023-02-11T02:06:51.013Z,74.96
2023-02-11T02:09:15.807Z,74.81
2023-02-11T02:11:28.209Z,74.58
2023-02-11T02:13:40.102Z,74.53
2023-02-11T02:15:58.035Z,74.64
2023-02-11T02:18:29.590Z,74.61
2023-02-11T02:21:08.205Z,74.54
2023-02-11T02:23:48.579Z,74.69
2023-02-11T02:26:16.430Z,74.57
2023-02-11T02:29:13.997Z,74.78
2023-02-11T02:31:58.858Z,74.71
2023-02-11T02:34:25.905Z,74.56
2023-02-11T02:36:48.246Z,74.49
2023-02-11T02:39:15.802Z,74.55
2023-02-11T02:41:33.751Z,74.95
2023-02-11T02:43:49.315Z,74.51
2023-02-11T02:46:15.282Z,74.69
2023-02-11T02:48:33.588Z,74.72
2023-02-11T02:50:46.702Z,74.47
2023-02-11T02:53:17.032Z,74.59
2023-02-11T02:55:41.722Z,74.54
2023-02-11T02:58:13.581Z,74.49
2023-02-11T03:00:45.108Z,74.59
2023-02-11T03:03:09.016Z,74.46
2023-02-11T03:05:44.454Z,74.21
2023-02-11T03:08:09.394Z,74.53
2023-02-11T03:10:27.717Z,74.44
2023-02-11T03:12:40.301Z,74.14
2023-02-11T03:14:52.915Z,74.22
2023-02-11T03:17:08.523Z,74.73
2023-02-11T03:19:29.806Z,74.51
2023-02-11T03:21:44.252Z,74.38
2023-02-11T03:24:00.775Z,74.61
2023-02-11T03:26:22.992Z,74.30
2023-02-11T03:28:42.671Z,74.36
2023-02-11T03:31:04.557Z,74.38
2023-02-11T03:33:30.720Z,74.56
2023-02-11T03:35:51.786Z,74.38
2023-02-11T03:38:10.806Z,74.43
2023-02-11T03:40:26.699Z,74.44
2023-02-11T03:42:43.808Z,74.54
2023-02-11T03:45:09.674Z,74.66
2023-02-11T03:47:26.412Z,74.45
2023-02-11T03:49:40.991Z,74.36
2023-02-11T03:51:54.087Z,74.44
2023-02-11T03:54:11.618Z,74.75
2023-02-11T03:56:28.829Z,74.58
2023-02-11T03:58:40.620Z,74.75
2023-02-11T04:00:53.047Z,74.61
2023-02-11T04:03:06.783Z,74.73
2023-02-11T04:05:18.555Z,74.79
2023-02-11T04:07:31.674Z,74.69
2023-02-11T04:09:44.690Z,74.78
2023-02-11T04:11:57.298Z,74.65
2023-02-11T04:14:09.235Z,74.88
2023-02-11T04:16:21.540Z,74.76
2023-02-11T04:18:33.384Z,74.89
2023-02-11T04:20:45.298Z,74.78
2023-02-11T04:22:57.171Z,75.05
2023-02-11T04:25:09.886Z,75.02
2023-02-11T04:27:21.881Z,75.26
2023-02-11T04:29:33.665Z,75.20
2023-02-11T04:31:45.617Z,75.02
2023-02-11T04:33:57.564Z,75.34
2023-02-11T04:36:09.252Z,75.13
2023-02-11T04:38:24.208Z,75.29
2023-02-11T04:40:35.995Z,75.55
2023-02-11T04:42:47.683Z,75.51
2023-02-11T04:44:59.476Z,75.65
2023-02-11T04:47:13.682Z,75.65
2023-02-11T04:49:25.720Z,75.89
2023-02-11T04:51:37.607Z,75.91
2023-02-11T04:53:49.297Z,76.10
2023-02-11T04:56:01.188Z,76.18
2023-02-11T04:58:12.773Z,76.26
2023-02-11T05:00:24.771Z,76.35
2023-02-11T05:02:36.556Z,76.47
2023-02-11T05:04:48.551Z,76.53
2023-02-11T05:07:00.238Z,76.66
2023-02-11T05:09:12.861Z,76.54
2023-02-11T05:11:25.872Z,76.66
2023-02-11T05:13:37.655Z,77.15
2023-02-11T05:15:50.106Z,77.20
2023-02-11T05:18:02.158Z,77.09
2023-02-11T05:20:14.482Z,76.90
2023-02-11T05:22:26.248Z,77.45
2023-02-11T05:24:37.936Z,77.66
2023-02-11T05:26:49.725Z,77.60
2023-02-11T05:29:01.930Z,77.55
2023-02-11T05:31:14.931Z,77.96
2023-02-11T05:33:27.040Z,77.68
2023-02-11T05:35:39.141Z,78.02
2023-02-11T05:37:51.030Z,77.91
2023-02-11T05:40:02.929Z,78.01
2023-02-11T05:42:15.019Z,77.95
2023-02-11T05:44:26.814Z,78.11
2023-02-11T05:46:38.430Z,77.94
2023-02-11T05:48:50.798Z,78.14
2023-02-11T05:51:02.821Z,77.99
2023-02-11T05:53:15.299Z,78.09
2023-02-11T05:55:27.398Z,78.26
2023-02-11T05:57:39.290Z,78.21
2023-02-11T05:59:50.877Z,78.20
2023-02-11T06:02:02.981Z,78.38
2023-02-11T06:04:15.073Z,78.40
2023-02-11T06:06:27.075Z,78.34
2023-02-11T06:08:39.777Z,78.51
2023-02-11T06:10:52.080Z,78.41
2023-02-11T06:13:04.595Z,78.51
2023-02-11T06:15:16.378Z,78.39
2023-02-11T06:17:32.056Z,78.72
2023-02-11T06:19:44.459Z,78.58
2023-02-11T06:21:56.454Z,78.88
2023-02-11T06:24:08.550Z,79.06
2023-02-11T06:26:23.495Z,78.93
2023-02-11T06:28:36.330Z,79.09
2023-02-11T06:30:48.353Z,78.90
2023-02-11T06:33:00.219Z,79.24
2023-02-11T06:35:14.414Z,79.36
2023-02-11T06:37:26.157Z,79.58
2023-02-11T06:39:38.250Z,79.72
2023-02-11T06:41:49.946Z,79.88
2023-02-11T06:44:01.727Z,79.86
2023-02-11T06:46:13.960Z,80.19
2023-02-11T06:48:25.716Z,80.27
2023-02-11T06:50:37.304Z,80.52
2023-02-11T06:52:49.707Z,80.84
2023-02-11T06:55:01.403Z,80.68
2023-02-11T06:57:13.182Z,80.96
2023-02-11T06:59:25.383Z,81.09
2023-02-11T07:01:37.090Z,81.16
2023-02-11T07:03:48.961Z,81.02
2023-02-11T07:06:00.751Z,81.20
2023-02-11T07:08:13.055Z,80.92
2023-02-11T07:10:25.174Z,81.34
2023-02-11T07:12:37.451Z,81.54
2023-02-11T07:14:49.346Z,81.43
2023-02-11T07:17:01.647Z,81.50
2023-02-11T07:19:13.641Z,81.56
2023-02-11T07:21:25.635Z,81.55
2023-02-11T07:23:38.255Z,81.86
2023-02-11T07:25:50.174Z,81.85
2023-02-11T07:28:04.114Z,82.01
2023-02-11T07:30:15.969Z,81.95
2023-02-11T07:32:27.763Z,82.05
2023-02-11T07:34:39.979Z,81.94
2023-02-11T07:36:52.070Z,81.89
2023-02-11T07:39:04.356Z,81.79
2023-02-11T07:41:20.857Z,81.85
2023-02-11T07:43:33.889Z,81.80
2023-02-11T07:45:45.974Z,81.67
2023-02-11T07:47:58.182Z,81.79
2023-02-11T07:50:10.474Z,81.43
2023-02-11T07:52:22.776Z,81.62
2023-02-11T07:54:34.772Z,81.65
2023-02-11T07:56:46.500Z,81.58
2023-02-11T07:59:02.502Z,81.43
2023-02-11T08:01:22.731Z,81.42
2023-02-11T08:03:36.283Z,81.57
2023-02-11T08:05:47.956Z,81.72
2023-02-11T08:08:00.050Z,81.54
2023-02-11T08:10:12.049Z,81.48
2023-02-11T08:12:23.633Z,81.22
2023-02-11T08:14:35.529Z,81.45
2023-02-11T08:16:47.341Z,81.37
2023-02-11T08:19:02.405Z,81.53
2023-02-11T08:21:14.267Z,81.67
2023-02-11T08:23:26.466Z,82.07
2023-02-11T08:25:38.360Z,81.78
2023-02-11T08:27:50.355Z,81.95
2023-02-11T08:30:02.144Z,81.92
2023-02-11T08:32:13.762Z,81.92
2023-02-11T08:34:26.037Z,82.26
2023-02-11T08:36:39.462Z,82.35
2023-02-11T08:38:51.483Z,81.87
2023-02-11T08:41:03.856Z,81.96
2023-02-11T08:43:15.651Z,82.05
2023-02-11T08:45:27.649Z,81.88
2023-02-11T08:47:40.270Z,81.98
2023-02-11T08:49:52.555Z,81.99
2023-02-11T08:52:04.656Z,81.47
2023-02-11T08:54:16.755Z,81.71
2023-02-11T08:56:31.526Z,81.63
2023-02-11T08:58:43.603Z,81.39
2023-02-11T09:00:55.965Z,81.16
2023-02-11T09:03:08.108Z,81.35
2023-02-11T09:05:19.705Z,81.34
2023-02-11T09:07:31.380Z,81.03
2023-02-11T09:09:43.069Z,81.27
2023-02-11T09:11:57.434Z,81.15
2023-02-11T09:14:16.802Z,81.10
2023-02-11T09:16:32.178Z,81.29
2023-02-11T09:18:45.891Z,81.01
2023-02-11T09:21:11.119Z,80.88
2023-02-11T09:23:23.274Z,81.08
2023-02-11T09:25:35.197Z,80.95
2023-02-11T09:27:46.981Z,80.94
2023-02-11T09:29:58.666Z,81.20
2023-02-11T09:32:10.956Z,80.94
2023-02-11T09:34:23.069Z,81.02
2023-02-11T09:36:37.783Z,80.87
2023-02-11T09:38:49.908Z,81.24
2023-02-11T09:41:04.215Z,81.00
2023-02-11T09:43:33.487Z,80.71
2023-02-11T09:45:45.431Z,80.67
2023-02-11T09:48:06.343Z,80.96
2023-02-11T09:50:36.500Z,80.77
2023-02-11T09:53:07.326Z,80.44
2023-02-11T09:55:25.269Z,80.21
2023-02-11T09:57:37.665Z,80.25
2023-02-11T09:59:50.587Z,80.18
2023-02-11T10:02:14.663Z,80.05
2023-02-11T10:05:20.088Z,79.91
2023-02-11T10:07:55.144Z,80.27
2023-02-11T10:10:10.117Z,80.30
2023-02-11T10:12:53.745Z,80.01
2023-02-11T10:15:15.264Z,80.08
2023-02-11T10:17:52.248Z,80.41
2023-02-11T10:20:23.082Z,80.18
2023-02-11T10:22:41.732Z,80.30
2023-02-11T10:25:00.214Z,80.46
2023-02-11T10:27:20.688Z,80.09
2023-02-11T10:29:32.625Z,79.92
2023-02-11T10:31:46.713Z,80.13
2023-02-11T10:34:13.088Z,80.10
2023-02-11T10:36:31.281Z,80.20
2023-02-11T10:38:43.686Z,80.10
2023-02-11T10:40:55.377Z,80.20
2023-02-11T10:43:12.707Z,80.07
2023-02-11T10:45:40.461Z,80.41
2023-02-11T10:47:52.348Z,80.40
2023-02-11T10:50:25.028Z,80.26
2023-02-11T10:52:36.717Z,80.59
2023-02-11T10:55:01.102Z,80.68
2023-02-11T10:57:20.109Z,80.69
2023-02-11T10:59:40.145Z,80.65
2023-02-11T11:01:56.518Z,80.64
2023-02-11T11:04:30.823Z,80.71
2023-02-11T11:06:42.854Z,80.67
2023-02-11T11:08:54.746Z,80.87
2023-02-11T11:11:12.995Z,80.51
2023-02-11T11:13:35.836Z,80.68
2023-02-11T11:16:20.347Z,80.67
2023-02-11T11:18:32.699Z,80.73
2023-02-11T11:21:00.073Z,80.58
2023-02-11T11:23:19.066Z,80.97
2023-02-11T11:25:31.106Z,80.66
2023-02-11T11:27:53.053Z,80.71
2023-02-11T11:30:05.276Z,80.59
2023-02-11T11:32:29.420Z,80.66
2023-02-11T11:34:49.533Z,80.63
2023-02-11T11:37:26.410Z,80.80
2023-02-11T11:39:40.733Z,80.73
2023-02-11T11:42:01.796Z,80.76
2023-02-11T11:44:37.992Z,80.92
2023-02-11T11:47:07.903Z,81.12
2023-02-11T11:49:59.356Z,81.23
2023-02-11T11:53:22.658Z,81.28
2023-02-11T11:56:28.919Z,81.61
2023-02-11T11:58:59.571Z,81.69
2023-02-11T12:01:44.681Z,81.50
2023-02-11T12:04:17.865Z,81.58
2023-02-11T12:06:42.850Z,82.06
2023-02-11T12:09:10.114Z,82.04
2023-02-11T12:12:06.850Z,82.24
2023-02-11T12:14:30.516Z,82.49
2023-02-11T12:17:19.888Z,82.93
2023-02-11T12:19:51.139Z,83.13
2023-02-11T12:22:34.244Z,83.23
2023-02-11T12:25:11.453Z,83.93
2023-02-11T12:27:29.233Z,83.91
2023-02-11T12:30:13.711Z,84.05
2023-02-11T12:32:41.806Z,84.37
2023-02-11T12:35:25.446Z,84.51
2023-02-11T12:38:15.890Z,84.87
2023-02-11T12:40:37.091Z,84.99
2023-02-11T12:43:23.854Z,85.01
2023-02-11T12:46:11.780Z,85.37
2023-02-11T12:48:39.261Z,85.53
2023-02-11T12:51:07.322Z,85.67
2023-02-11T12:54:01.610Z,85.60
2023-02-11T12:56:26.929Z,85.54
2023-02-11T12:58:45.252Z,85.70
2023-02-11T13:01:09.458Z,85.93
2023-02-11T13:03:27.478Z,86.53
2023-02-11T13:05:51.508Z,86.29
2023-02-11T13:08:23.830Z,86.61
2023-02-11T13:10:38.187Z,86.47
2023-02-11T13:13:11.476Z,86.62
2023-02-11T13:15:26.031Z,87.01
2023-02-11T13:17:47.774Z,87.03
2023-02-11T13:20:12.856Z,86.96
2023-02-11T13:22:34.881Z,87.43
2023-02-11T13:25:23.332Z,87.43
2023-02-11T13:27:58.831Z,87.08
2023-02-11T13:30:20.191Z,86.76
2023-02-11T13:32:54.206Z,86.89
2023-02-11T13:35:26.165Z,86.90
2023-02-11T13:37:39.903Z,86.97
2023-02-11T13:40:05.279Z,87.10
2023-02-11T13:42:18.760Z,87.08
2023-02-11T13:44:34.832Z,86.93
2023-02-11T13:46:59.845Z,87.01
2023-02-11T13:49:21.141Z,86.79
2023-02-11T13:51:36.206Z,87.02
2023-02-11T13:53:56.195Z,86.91
2023-02-11T13:56:13.032Z,87.10
2023-02-11T13:58:27.751Z,86.77
2023-02-11T14:00:39.660Z,86.92
2023-02-11T14:03:29.998Z,86.99
2023-02-11T14:06:29.955Z,87.05
2023-02-11T14:09:01.936Z,87.27
2023-02-11T14:11:32.682Z,86.90
2023-02-11T14:13:47.884Z,87.07
2023-02-11T14:16:04.531Z,87.09
2023-02-11T14:18:58.313Z,87.14
2023-02-11T14:21:20.745Z,87.11
2023-02-11T14:23:32.783Z,87.28
2023-02-11T14:25:51.930Z,87.42
2023-02-11T14:28:16.751Z,88.07
2023-02-11T14:30:47.065Z,86.56
2023-02-11T14:33:20.931Z,86.39
2023-02-11T14:36:00.574Z,86.36
2023-02-11T14:38:34.484Z,86.67
2023-02-11T14:41:22.625Z,86.58
2023-02-11T14:43:48.238Z,86.36
2023-02-11T14:46:03.069Z,86.80
2023-02-11T14:48:17.382Z,86.71
2023-02-11T14:50:38.355Z,86.72
2023-02-11T14:52:51.485Z,86.85
2023-02-11T14:55:18.934Z,86.81
2023-02-11T14:57:30.965Z,86.73
2023-02-11T15:00:02.644Z,86.80
2023-02-11T15:02:28.974Z,87.00
2023-02-11T15:04:44.132Z,86.98
2023-02-11T15:06:59.615Z,86.94
2023-02-11T15:09:32.443Z,86.92
2023-02-11T15:11:48.070Z,86.85
2023-02-11T15:14:11.143Z,86.75
2023-02-11T15:16:24.974Z,87.07
2023-02-11T15:18:44.897Z,86.98
2023-02-11T15:20:56.892Z,87.21
2023-02-11T15:23:20.515Z,87.07
2023-02-11T15:25:34.276Z,87.14
2023-02-11T15:27:46.085Z,87.26
2023-02-11T15:29:57.875Z,87.33
2023-02-11T15:32:10.126Z,87.16
2023-02-11T15:34:22.175Z,87.01
2023-02-11T15:36:36.527Z,87.19
2023-02-11T15:39:27.531Z,87.07
2023-02-11T15:41:39.638Z,87.03
2023-02-11T15:43:51.950Z,87.29
2023-02-11T15:46:03.972Z,86.98
2023-02-11T15:48:15.787Z,87.02
2023-02-11T15:50:40.894Z,86.90
2023-02-11T15:52:55.341Z,86.86
2023-02-11T15:55:13.821Z,86.67
2023-02-11T15:57:26.430Z,86.93
2023-02-11T15:59:40.683Z,87.04
2023-02-11T16:01:54.716Z,86.92
2023-02-11T16:04:06.905Z,86.96
2023-02-11T16:06:22.533Z,86.92
2023-02-11T16:08:35.633Z,86.80
2023-02-11T16:11:03.416Z,87.12
2023-02-11T16:13:20.524Z,87.06
2023-02-11T16:15:38.844Z,87.02
2023-02-11T16:17:53.084Z,87.09
2023-02-11T16:20:06.822Z,86.98
2023-02-11T16:22:30.382Z,86.78
2023-02-11T16:24:43.610Z,86.63
2023-02-11T16:26:59.906Z,87.01
2023-02-11T16:29:15.633Z,87.12
2023-02-11T16:31:34.163Z,87.06
2023-02-11T16:33:46.129Z,87.27
2023-02-11T16:35:57.979Z,87.28
2023-02-11T16:38:09.547Z,87.22
2023-02-11T16:40:21.401Z,87.28
2023-02-11T16:42:33.393Z,87.23
2023-02-11T16:44:45.705Z,87.32
2023-02-11T16:47:03.388Z,87.50
2023-02-11T16:49:26.314Z,87.59
2023-02-11T16:51:41.394Z,87.45
2023-02-11T16:53:53.436Z,87.39
2023-02-11T16:56:05.749Z,87.26
2023-02-11T16:58:17.835Z,87.40
2023-02-11T17:00:30.289Z,87.39
2023-02-11T17:02:43.461Z,87.22
2023-02-11T17:04:58.644Z,87.37
2023-02-11T17:07:10.526Z,87.28
2023-02-11T17:09:30.317Z,87.41
2023-02-11T17:11:43.220Z,87.24
2023-02-11T17:13:55.224Z,87.36
2023-02-11T17:16:16.086Z,87.30
2023-02-11T17:18:28.215Z,87.35
2023-02-11T17:20:42.985Z,87.36
2023-02-11T17:22:55.068Z,87.56
2023-02-11T17:25:08.187Z,87.63
2023-02-11T17:27:20.077Z,87.38
2023-02-11T17:29:32.386Z,87.36
2023-02-11T17:31:45.046Z,87.44
2023-02-11T17:33:56.777Z,87.41
2023-02-11T17:36:10.617Z,87.34
2023-02-11T17:38:22.512Z,87.49
2023-02-11T17:40:34.811Z,87.50
2023-02-11T17:42:46.806Z,87.46
2023-02-11T17:44:59.013Z,87.55
2023-02-11T17:47:11.479Z,87.32
2023-02-11T17:49:23.305Z,87.40
2023-02-11T17:51:38.236Z,87.44
2023-02-11T17:53:50.058Z,87.66
2023-02-11T17:56:06.461Z,87.66
2023-02-11T17:58:18.352Z,87.59
2023-02-11T18:00:31.061Z,87.75
2023-02-11T18:02:42.546Z,87.54
2023-02-11T18:04:57.685Z,87.55
2023-02-11T18:07:10.323Z,87.69
2023-02-11T18:09:22.517Z,87.54
2023-02-11T18:11:37.753Z,87.43
2023-02-11T18:13:54.524Z,87.50
2023-02-11T18:16:16.063Z,87.72
2023-02-11T18:18:28.519Z,87.71
2023-02-11T18:20:42.946Z,87.54
2023-02-11T18:22:55.115Z,87.59
2023-02-11T18:25:08.909Z,87.58
2023-02-11T18:27:21.518Z,87.53
2023-02-11T18:29:33.528Z,87.58
2023-02-11T18:31:45.481Z,87.84
2023-02-11T18:33:58.020Z,88.10
2023-02-11T18:36:12.666Z,87.83
2023-02-11T18:38:25.431Z,87.98
2023-02-11T18:40:40.981Z,87.89
2023-02-11T18:42:53.065Z,87.72
2023-02-11T18:45:09.503Z,87.87
2023-02-11T18:47:21.864Z,87.94
2023-02-11T18:49:35.804Z,88.06
2023-02-11T18:51:47.839Z,87.78
2023-02-11T18:54:02.046Z,87.93
2023-02-11T18:56:17.428Z,87.82
2023-02-11T18:58:29.523Z,87.97
2023-02-11T19:00:48.684Z,87.76
2023-02-11T19:03:04.368Z,87.86
2023-02-11T19:05:16.057Z,88.01
2023-02-11T19:07:27.840Z,87.92
2023-02-11T19:09:39.627Z,87.91
2023-02-11T19:11:54.126Z,87.79
2023-02-11T19:14:10.367Z,87.88
2023-02-11T19:16:22.400Z,87.97
2023-02-11T19:18:36.211Z,87.78
2023-02-11T19:20:47.999Z,87.67
2023-02-11T19:23:01.018Z,87.83
2023-02-11T19:25:13.954Z,87.75
2023-02-11T19:27:26.849Z,87.82
2023-02-11T19:29:39.132Z,87.75
2023-02-11T19:31:51.308Z,87.69
2023-02-11T19:34:04.171Z,87.72
2023-02-11T19:36:21.486Z,87.77
2023-02-11T19:38:34.604Z,87.81
2023-02-11T19:40:47.224Z,87.66
2023-02-11T19:42:59.208Z,87.89
2023-02-11T19:45:11.354Z,87.73
2023-02-11T19:47:27.961Z,88.00
2023-02-11T19:49:40.209Z,87.77
2023-02-11T19:51:53.580Z,87.82
2023-02-11T19:54:06.967Z,87.68
2023-02-11T19:56:20.845Z,87.95
2023-02-11T19:58:33.795Z,87.93
2023-02-11T20:00:45.653Z,87.76
2023-02-11T20:02:57.636Z,87.51
2023-02-11T20:05:09.909Z,87.57
2023-02-11T20:07:21.562Z,87.60
2023-02-11T20:09:33.904Z,87.57
2023-02-11T20:11:49.427Z,87.70
2023-02-11T20:14:02.424Z,87.68
2023-02-11T20:16:18.007Z,87.64
2023-02-11T20:18:29.860Z,87.58
2023-02-11T20:20:41.751Z,87.55
2023-02-11T20:22:53.319Z,87.71
2023-02-11T20:25:05.740Z,87.69
2023-02-11T20:27:19.973Z,87.62
2023-02-11T20:29:32.187Z,87.57
2023-02-11T20:31:48.483Z,87.55
2023-02-11T20:34:01.610Z,87.72
2023-02-11T20:36:16.670Z,87.47
2023-02-11T20:38:29.281Z,87.62
2023-02-11T20:40:41.274Z,87.58
2023-02-11T20:42:52.862Z,87.69
2023-02-11T20:45:06.619Z,87.53
2023-02-11T20:47:27.296Z,87.59
2023-02-11T20:49:39.594Z,87.59
2023-02-11T20:51:53.938Z,87.42
2023-02-11T20:54:07.001Z,87.50
2023-02-11T20:56:22.718Z,87.74
2023-02-11T20:58:36.222Z,87.53
2023-02-11T21:00:48.176Z,87.41
2023-02-11T21:03:00.414Z,87.49
2023-02-11T21:05:12.779Z,87.39
2023-02-11T21:07:24.785Z,87.43
2023-02-11T21:09:39.121Z,87.62
2023-02-11T21:11:53.158Z,87.42
2023-02-11T21:14:12.120Z,87.44
2023-02-11T21:16:24.774Z,87.48
2023-02-11T21:18:38.072Z,87.42
2023-02-11T21:20:50.666Z,87.28
2023-02-11T21:23:03.320Z,87.33
2023-02-11T21:25:24.024Z,87.28
2023-02-11T21:27:38.023Z,87.21
2023-02-11T21:29:54.554Z,87.38
2023-02-11T21:32:09.121Z,87.26
2023-02-11T21:34:21.394Z,87.29
2023-02-11T21:36:33.684Z,87.24
2023-02-11T21:38:45.782Z,87.33
2023-02-11T21:41:04.325Z,87.31
2023-02-11T21:43:16.454Z,87.12
2023-02-11T21:45:30.754Z,87.32
2023-02-11T21:47:43.240Z,87.23
2023-02-11T21:49:55.280Z,87.27
2023-02-11T21:52:07.064Z,87.12
2023-02-11T21:54:21.619Z,87.15
2023-02-11T21:56:35.585Z,87.20
2023-02-11T21:58:47.477Z,87.29
2023-02-11T22:00:59.631Z,87.33
2023-02-11T22:03:12.431Z,87.11
2023-02-11T22:05:24.361Z,87.11
2023-02-11T22:07:36.662Z,86.87
2023-02-11T22:09:48.859Z,87.04
2023-02-11T22:12:01.060Z,87.13
2023-02-11T22:14:13.395Z,87.10
2023-02-11T22:16:27.124Z,86.91
2023-02-11T22:18:39.316Z,87.12
2023-02-11T22:21:02.379Z,87.04
2023-02-11T22:23:14.091Z,87.06
2023-02-11T22:25:25.931Z,87.10
2023-02-11T22:27:38.129Z,87.05
2023-02-11T22:29:50.532Z,87.00
2023-02-11T22:32:02.255Z,87.08
2023-02-11T22:34:14.214Z,87.05
2023-02-11T22:36:32.655Z,86.83
2023-02-11T22:38:44.449Z,86.88
2023-02-11T22:40:58.693Z,87.10
2023-02-11T22:43:10.687Z,87.01
2023-02-11T22:45:22.352Z,87.20
2023-02-11T22:47:34.365Z,87.10
2023-02-11T22:49:46.463Z,87.13
2023-02-11T22:51:58.460Z,87.13
2023-02-11T22:54:16.164Z,87.20
2023-02-11T22:56:31.003Z,86.97
2023-02-11T22:58:42.838Z,87.01
2023-02-11T23:00:54.529Z,87.00
2023-02-11T23:03:08.578Z,87.05
2023-02-11T23:05:20.562Z,87.06
2023-02-11T23:07:32.671Z,87.04
2023-02-11T23:09:44.554Z,87.02
2023-02-11T23:11:57.999Z,86.99
2023-02-11T23:14:12.411Z,86.99
2023-02-11T23:16:28.629Z,86.82
2023-02-11T23:18:42.825Z,86.93
2023-02-11T23:20:54.269Z,86.88
2023-02-11T23:23:06.563Z,86.91
2023-02-11T23:25:18.214Z,86.89
2023-02-11T23:27:30.140Z,86.74
2023-02-11T23:29:41.823Z,86.70
2023-02-11T23:31:53.514Z,86.74
2023-02-11T23:34:07.353Z,86.92
2023-02-11T23:36:21.536Z,86.94
2023-02-11T23:38:33.064Z,86.75
2023-02-11T23:40:44.644Z,86.74
2023-02-11T23:42:56.272Z,86.86
2023-02-11T23:45:09.053Z,86.90
2023-02-11T23:47:20.759Z,86.90
2023-02-11T23:49:32.955Z,86.68
2023-02-11T23:51:44.797Z,86.55
2023-02-11T23:53:56.537Z,86.79
2023-02-11T23:56:17.212Z,86.59
2023-02-11T23:58:29.432Z,86.65
